Time;durP1;ratioP1;P1;durP2;ratioP2;P2;SDS_P1;SDS_P2;PMS_P1;PMS_P2;Temp;Humidity;BMP_temperature;BMP_pressure;BME280_temperature;BME280_humidity;BME280_pressure;Samples;Min_cycle;Max_cycle;Signal;HPM_P1;HPM_P2
2022/03/20 00:00:54;;;;;;;0.00;0.00;;;4.80;99.90;;;;;;5000071;28;20057;-64
2022/03/20 00:03:22;;;;;;;0.00;0.00;;;4.60;99.90;;;;;;4992798;28;20481;-63
2022/03/20 00:05:48;;;;;;;0.00;0.00;;;4.60;99.90;;;;;;4982946;28;20050;-63
2022/03/20 00:08:15;;;;;;;0.00;0.00;;;4.60;99.90;;;;;;4980620;28;20042;-64
2022/03/20 00:10:46;;;;;;;0.00;0.00;;;4.50;99.90;;;;;;4982700;28;20069;-63
2022/03/20 00:13:13;;;;;;;0.00;0.00;;;4.50;99.90;;;;;;4981999;28;20050;-63
2022/03/20 00:15:43;;;;;;;0.10;0.10;;;4.50;99.90;;;;;;4997287;28;20067;-63
2022/03/20 00:18:09;;;;;;;0.00;0.00;;;4.50;99.90;;;;;;4983443;28;20414;-63
2022/03/20 00:20:41;;;;;;;0.00;0.00;;;4.40;99.90;;;;;;4983015;28;20049;-64
2022/03/20 00:23:09;;;;;;;0.00;0.00;;;4.40;99.90;;;;;;4996584;28;20050;-64
2022/03/20 00:25:36;;;;;;;0.00;0.00;;;4.40;99.90;;;;;;4983105;28;20104;-61
2022/03/20 00:28:06;;;;;;;0.00;0.00;;;4.30;99.90;;;;;;4982716;28;20453;-64
2022/03/20 00:30:32;;;;;;;0.00;0.00;;;4.30;99.90;;;;;;4982936;28;20050;-64
2022/03/20 00:32:58;;;;;;;0.00;0.00;;;4.30;99.90;;;;;;4982581;28;20038;-65
2022/03/20 00:35:24;;;;;;;0.00;0.00;;;4.30;99.90;;;;;;4982092;28;20061;-63
2022/03/20 00:37:50;;;;;;;0.00;0.00;;;4.30;99.90;;;;;;4981340;28;20082;-63
2022/03/20 00:40:15;;;;;;;0.00;0.00;;;4.30;99.90;;;;;;4982319;28;20383;-64
2022/03/20 00:42:41;;;;;;;0.00;0.00;;;4.30;99.90;;;;;;4982589;28;20042;-63
2022/03/20 00:45:08;;;;;;;0.00;0.00;;;4.30;99.90;;;;;;4982758;28;20096;-63
2022/03/20 00:47:33;;;;;;;0.00;0.00;;;4.30;99.90;;;;;;4982795;28;20088;-63
2022/03/20 00:49:59;;;;;;;0.00;0.00;;;4.20;99.90;;;;;;4981893;28;20086;-63
2022/03/20 00:52:25;;;;;;;0.00;0.00;;;4.20;99.90;;;;;;4982323;28;20057;-63
2022/03/20 00:54:50;;;;;;;0.00;0.00;;;4.10;99.90;;;;;;4982069;28;20045;-64
2022/03/20 00:57:16;;;;;;;0.00;0.00;;;4.10;99.90;;;;;;4982625;28;20066;-64
2022/03/20 00:59:43;;;;;;;0.00;0.00;;;4.10;99.90;;;;;;4980913;28;20405;-63
2022/03/20 01:02:09;;;;;;;0.00;0.00;;;4.40;99.90;;;;;;4989544;28;20132;-64
2022/03/20 01:04:38;;;;;;;0.00;0.00;;;4.10;99.90;;;;;;4986752;28;20130;-62
2022/03/20 01:07:04;;;;;;;0.00;0.00;;;4.00;99.90;;;;;;4982174;28;20061;-64
2022/03/20 01:09:30;;;;;;;0.22;0.22;;;4.00;99.90;;;;;;4982319;28;20137;-63
2022/03/20 01:11:57;;;;;;;0.00;0.00;;;4.00;99.90;;;;;;4982461;28;20052;-63
2022/03/20 01:14:24;;;;;;;0.00;0.00;;;4.00;99.90;;;;;;4981734;28;20096;-64
2022/03/20 01:16:51;;;;;;;0.00;0.00;;;3.90;99.90;;;;;;4980873;28;20046;-64
2022/03/20 01:19:17;;;;;;;0.00;0.00;;;3.90;99.90;;;;;;4982416;28;20101;-63
2022/03/20 01:21:43;;;;;;;0.00;0.00;;;3.90;99.90;;;;;;4981643;28;20046;-63
2022/03/20 01:24:09;;;;;;;0.00;0.00;;;3.80;99.90;;;;;;4982469;28;20134;-63
2022/03/20 01:26:36;;;;;;;0.00;0.00;;;3.80;99.90;;;;;;4980906;28;20125;-64
2022/03/20 01:29:02;;;;;;;0.00;0.00;;;3.80;99.90;;;;;;4982510;28;20052;-63
2022/03/20 01:31:28;;;;;;;0.10;0.10;;;3.80;99.90;;;;;;4981941;28;20057;-64
2022/03/20 01:33:55;;;;;;;0.00;0.00;;;3.80;99.90;;;;;;4982095;28;20049;-64
2022/03/20 01:36:21;;;;;;;0.52;0.38;;;3.80;99.90;;;;;;4982247;28;20047;-64
2022/03/20 01:38:47;;;;;;;0.00;0.00;;;3.80;99.90;;;;;;4981715;28;20473;-64
2022/03/20 01:41:13;;;;;;;0.00;0.00;;;3.80;99.90;;;;;;4984079;28;20088;-64
2022/03/20 01:43:59;;;;;;;0.00;0.00;;;3.80;99.90;;;;;;4985597;28;20472;-64
2022/03/20 01:46:25;;;;;;;0.00;0.00;;;3.70;99.90;;;;;;4985458;28;20369;-64
2022/03/20 01:48:51;;;;;;;0.00;0.00;;;3.70;99.90;;;;;;4985237;28;20038;-63
2022/03/20 01:51:18;;;;;;;0.00;0.00;;;3.70;99.90;;;;;;4985816;28;20409;-63
2022/03/20 01:53:44;;;;;;;0.00;0.00;;;3.70;99.90;;;;;;4984413;28;20076;-63
2022/03/20 01:56:10;;;;;;;0.00;0.00;;;3.70;99.90;;;;;;4985465;28;20046;-63
2022/03/20 01:58:36;;;;;;;0.55;0.50;;;3.80;99.90;;;;;;4985532;28;20434;-63
2022/03/20 02:03:27;;;;;;;0.00;0.00;;;3.60;99.90;;;;;;5059975;22;20098;-63
2022/03/20 02:05:53;;;;;;;0.00;0.00;;;3.60;99.90;;;;;;5044132;28;20541;-63
2022/03/20 02:08:26;;;;;;;0.00;0.00;;;3.60;99.90;;;;;;5043884;28;20086;-63
2022/03/20 02:10:55;;;;;;;0.00;0.00;;;3.60;99.90;;;;;;5043485;28;20517;-64
2022/03/20 02:13:24;;;;;;;0.00;0.00;;;3.50;99.90;;;;;;5044806;28;20750;-63
2022/03/20 02:15:51;;;;;;;0.00;0.00;;;3.50;99.90;;;;;;5044497;28;20491;-63
2022/03/20 02:18:18;;;;;;;0.00;0.00;;;3.50;99.90;;;;;;5026322;28;20492;-64
2022/03/20 02:20:48;;;;;;;0.00;0.00;;;3.50;99.90;;;;;;5044135;28;20422;-64
2022/03/20 02:23:15;;;;;;;0.00;0.00;;;3.50;99.90;;;;;;5043817;28;20045;-66
2022/03/20 02:25:51;;;;;;;0.00;0.00;;;2.70;99.90;;;;;;5044010;28;20098;-66
2022/03/20 02:28:18;;;;;;;0.00;0.00;;;3.40;99.90;;;;;;5026647;28;20041;-66
2022/03/20 02:30:45;;;;;;;0.00;0.00;;;3.40;99.90;;;;;;5043874;28;20121;-65
2022/03/20 02:33:10;;;;;;;0.00;0.00;;;3.40;99.90;;;;;;5044011;28;20410;-66
2022/03/20 02:35:39;;;;;;;0.00;0.00;;;3.40;99.90;;;;;;5043457;28;20037;-66
2022/03/20 02:38:10;;;;;;;0.00;0.00;;;3.60;99.90;;;;;;5043671;28;20080;-66
2022/03/20 02:40:36;;;;;;;0.00;0.00;;;3.40;99.90;;;;;;5044000;28;20075;-66
2022/03/20 02:43:05;;;;;;;0.00;0.00;;;3.40;99.90;;;;;;5043889;28;20107;-67
2022/03/20 02:45:31;;;;;;;0.20;0.20;;;3.30;99.90;;;;;;5044478;28;20374;-67
2022/03/20 02:47:58;;;;;;;0.00;0.00;;;3.30;99.90;;;;;;5025987;28;20079;-67
2022/03/20 02:50:30;;;;;;;0.00;0.00;;;3.30;99.90;;;;;;5043143;28;20288;-66
2022/03/20 02:53:11;;;;;;;0.00;0.00;;;3.30;99.90;;;;;;5042567;28;20041;-63
2022/03/20 02:55:39;;;;;;;0.00;0.00;;;3.30;99.90;;;;;;5043997;28;20440;-63
2022/03/20 02:58:09;;;;;;;0.00;0.00;;;3.30;99.90;;;;;;5043398;28;20483;-63
2022/03/20 03:00:36;;;;;;;0.00;0.00;;;3.30;99.90;;;;;;5043472;28;20407;-64
2022/03/20 03:03:04;;;;;;;0.00;0.00;;;3.20;99.90;;;;;;5051774;28;20699;-64
2022/03/20 03:05:32;;;;;;;0.25;0.13;;;3.30;99.90;;;;;;5045656;28;20068;-65
2022/03/20 03:10:56;;;;;;;0.00;0.00;;;3.20;99.90;;;;;;5062287;28;20094;-64
2022/03/20 03:13:30;;;;;;;0.00;0.00;;;3.10;99.90;;;;;;5063815;28;20108;-63
2022/03/20 03:16:02;;;;;;;0.00;0.00;;;3.20;99.90;;;;;;5063035;28;20063;-64
2022/03/20 03:18:27;;;;;;;0.00;0.00;;;3.10;99.90;;;;;;5063595;28;20112;-64
2022/03/20 03:20:53;;;;;;;0.00;0.00;;;3.10;99.90;;;;;;5062872;28;20124;-63
2022/03/20 03:23:21;;;;;;;0.00;0.00;;;3.00;99.90;;;;;;5062640;28;20135;-64
2022/03/20 03:25:47;;;;;;;0.00;0.00;;;4.50;99.90;;;;;;5062226;28;20097;-63
2022/03/20 03:28:13;;;;;;;0.00;0.00;;;3.00;99.90;;;;;;5063265;28;20037;-63
2022/03/20 03:30:42;;;;;;;0.10;0.10;;;3.00;99.90;;;;;;5062466;28;20124;-62
2022/03/20 03:33:08;;;;;;;0.00;0.00;;;2.90;99.90;;;;;;5062910;28;20045;-63
2022/03/20 03:35:43;;;;;;;0.00;0.00;;;2.90;99.90;;;;;;5045196;28;20106;-64
2022/03/20 03:38:15;;;;;;;;;;;2.90;99.90;;;;;;5062624;28;20068;-65
2022/03/20 03:40:44;;;;;;;0.00;0.00;;;2.90;99.90;;;;;;5061756;28;19916;-65
2022/03/20 03:43:11;;;;;;;0.00;0.00;;;2.90;99.90;;;;;;5063236;28;20124;-63
2022/03/20 03:45:40;;;;;;;0.00;0.00;;;2.80;99.90;;;;;;5044514;28;20044;-64
2022/03/20 03:48:06;;;;;;;0.10;0.10;;;2.80;99.90;;;;;;5062012;28;20091;-63
2022/03/20 03:50:33;;;;;;;0.00;0.00;;;2.80;99.90;;;;;;5062836;28;20051;-63
2022/03/20 03:52:59;;;;;;;0.00;0.00;;;2.80;99.90;;;;;;5061654;28;20048;-64
2022/03/20 03:55:25;;;;;;;0.10;0.10;;;2.70;99.90;;;;;;5062351;28;20430;-64
2022/03/20 03:57:51;;;;;;;0.00;0.00;;;2.80;99.90;;;;;;5027371;28;20479;-64
2022/03/20 04:00:18;;;;;;;0.00;0.00;;;2.70;99.90;;;;;;5062604;28;20045;-63
2022/03/20 04:02:44;;;;;;;0.00;0.00;;;2.70;99.90;;;;;;5054613;28;20415;-63
2022/03/20 04:05:10;;;;;;;0.00;0.00;;;2.70;99.90;;;;;;5041795;28;20055;-63
2022/03/20 04:07:36;;;;;;;0.00;0.00;;;2.70;99.90;;;;;;5041820;28;20091;-63
2022/03/20 04:10:04;;;;;;;1.45;0.35;;;2.70;99.90;;;;;;5042423;28;20037;-63
2022/03/20 04:12:31;;;;;;;0.00;0.00;;;2.70;99.90;;;;;;5041496;28;20080;-63
2022/03/20 04:15:02;;;;;;;0.00;0.00;;;2.60;99.90;;;;;;5041960;28;20532;-64
2022/03/20 04:17:29;;;;;;;0.00;0.00;;;2.70;99.90;;;;;;5042387;28;20470;-63
2022/03/20 04:19:54;;;;;;;0.00;0.00;;;2.70;99.90;;;;;;5042124;28;20040;-64
2022/03/20 04:22:20;;;;;;;0.00;0.00;;;2.60;99.90;;;;;;5040951;28;20051;-63
2022/03/20 04:24:45;;;;;;;0.00;0.00;;;2.60;99.90;;;;;;5042077;28;20044;-64
2022/03/20 04:27:13;;;;;;;0.00;0.00;;;2.60;99.90;;;;;;5042454;28;20041;-64
2022/03/20 04:29:39;;;;;;;0.00;0.00;;;2.60;99.90;;;;;;5041167;28;20448;-61
2022/03/20 04:32:06;;;;;;;0.00;0.00;;;2.50;99.90;;;;;;5042386;28;20045;-61
2022/03/20 04:34:31;;;;;;;0.03;0.03;;;2.60;99.90;;;;;;5042342;28;20550;-64
2022/03/20 04:36:57;;;;;;;0.30;0.30;;;2.50;99.90;;;;;;5039812;28;20049;-64
2022/03/20 04:39:24;;;;;;;0.00;0.00;;;2.50;99.90;;;;;;5041326;28;20059;-63
2022/03/20 04:41:49;;;;;;;0.00;0.00;;;2.50;99.90;;;;;;5041729;28;20041;-64
2022/03/20 04:44:16;;;;;;;0.00;0.00;;;2.50;99.90;;;;;;5041820;28;20045;-63
2022/03/20 04:46:42;;;;;;;0.00;0.00;;;2.50;99.90;;;;;;5041636;28;20056;-63
2022/03/20 05:00:06;;;;;;;0.00;0.00;;;2.30;99.90;;;;;;5041867;28;20095;-66
2022/03/20 05:02:32;;;;;;;0.00;0.00;;;2.30;99.90;;;;;;5051975;28;20310;-67
2022/03/20 05:04:57;;;;;;;0.00;0.00;;;2.30;99.90;;;;;;5041698;28;20101;-66
2022/03/20 05:07:23;;;;;;;0.00;0.00;;;2.30;99.90;;;;;;5040904;28;20664;-65
2022/03/20 05:15:17;;;;;;;0.00;0.00;;;2.30;99.90;;;;;;5044677;28;20052;-66
2022/03/20 05:17:43;;;;;;;0.20;0.20;;;2.20;99.90;;;;;;5044761;28;20488;-66
2022/03/20 05:20:10;;;;;;;0.00;0.00;;;2.20;99.90;;;;;;5045353;28;20044;-65
2022/03/20 05:22:38;;;;;;;0.00;0.00;;;2.20;99.90;;;;;;5044942;28;20097;-65
2022/03/20 05:25:10;;;;;;;1.25;0.20;;;2.20;99.90;;;;;;5045671;28;20049;-66
2022/03/20 05:27:37;;;;;;;0.00;0.00;;;2.20;99.90;;;;;;5045021;28;20041;-66
2022/03/20 05:30:07;;;;;;;0.10;0.10;;;2.20;99.90;;;;;;5045764;28;20045;-67
2022/03/20 05:32:35;;;;;;;0.08;0.08;;;2.20;99.90;;;;;;5045764;28;20119;-64
2022/03/20 05:35:04;;;;;;;0.00;0.00;;;2.20;99.90;;;;;;5044920;28;20053;-64
2022/03/20 05:37:29;;;;;;;0.10;0.10;;;2.20;99.90;;;;;;5044646;28;20041;-64
2022/03/20 05:39:55;;;;;;;0.00;0.00;;;2.20;99.90;;;;;;5044587;28;20048;-64
2022/03/20 05:42:21;;;;;;;0.08;0.08;;;2.10;99.90;;;;;;5044972;28;20051;-65
2022/03/20 05:44:47;;;;;;;0.35;0.35;;;2.10;99.90;;;;;;5026970;28;20041;-64
2022/03/20 05:47:12;;;;;;;0.00;0.00;;;2.10;99.90;;;;;;5045047;28;20048;-64
2022/03/20 05:49:38;;;;;;;0.00;0.00;;;2.10;99.90;;;;;;5044938;28;20432;-65
2022/03/20 05:52:06;;;;;;;0.00;0.00;;;2.10;99.90;;;;;;5044098;28;20407;-65
2022/03/20 05:54:31;;;;;;;0.00;0.00;;;2.10;99.90;;;;;;5045641;28;20045;-64
2022/03/20 05:59:41;;;;;;;0.00;0.00;;;2.10;99.90;;;;;;5044447;28;20084;-64
2022/03/20 06:02:09;;;;;;;0.03;0.03;;;2.20;99.90;;;;;;5050769;28;20103;-65
2022/03/20 06:04:35;;;;;;;0.03;0.03;;;2.10;99.90;;;;;;5048642;28;20131;-64
2022/03/20 06:07:01;;;;;;;0.00;0.00;;;2.20;99.90;;;;;;5044035;28;20639;-64
2022/03/20 06:09:27;;;;;;;0.38;0.25;;;2.20;99.90;;;;;;5044581;28;20052;-64
2022/03/20 06:11:53;;;;;;;1.67;0.20;;;2.20;99.90;;;;;;5044002;28;20132;-64
2022/03/20 06:14:19;;;;;;;0.10;0.10;;;2.20;99.90;;;;;;5044069;28;20128;-64
2022/03/20 06:16:48;;;;;;;0.00;0.00;;;2.30;99.90;;;;;;5026155;28;20081;-64
2022/03/20 06:19:15;;;;;;;0.00;0.00;;;2.30;99.90;;;;;;5044709;28;20040;-65
2022/03/20 06:21:42;;;;;;;0.00;0.00;;;2.30;99.90;;;;;;5043377;28;20037;-65
2022/03/20 06:24:08;;;;;;;0.00;0.00;;;2.30;99.90;;;;;;5044439;28;20122;-66
2022/03/20 06:26:37;;;;;;;0.03;0.03;;;2.30;99.90;;;;;;5044124;28;20139;-67
2022/03/20 06:29:05;;;;;;;0.13;0.13;;;2.30;99.90;;;;;;5026618;28;20468;-65
2022/03/20 06:31:31;;;;;;;0.00;0.00;;;2.40;99.90;;;;;;5044224;28;20060;-66
2022/03/20 06:34:00;;;;;;;0.00;0.00;;;2.40;99.90;;;;;;5043607;28;20048;-66
2022/03/20 06:36:27;;;;;;;0.00;0.00;;;2.40;99.90;;;;;;5043731;28;20087;-66
2022/03/20 06:38:53;;;;;;;0.10;0.10;;;3.20;99.90;;;;;;5042986;28;20044;-65
2022/03/20 06:41:19;;;;;;;0.10;0.10;;;2.50;99.90;;;;;;5044551;28;20399;-65
2022/03/20 06:43:45;;;;;;;0.00;0.00;;;2.50;99.90;;;;;;5043271;28;20033;-64
2022/03/20 06:46:11;;;;;;;0.00;0.00;;;2.60;99.90;;;;;;5043518;28;20122;-65
2022/03/20 06:48:37;;;;;;;0.20;0.20;;;2.60;99.90;;;;;;5043167;28;20041;-64
2022/03/20 06:51:05;;;;;;;0.00;0.00;;;2.60;99.90;;;;;;5043471;28;20040;-64
2022/03/20 06:53:32;;;;;;;0.00;0.00;;;2.60;99.90;;;;;;5043937;28;20128;-65
2022/03/20 06:55:58;;;;;;;0.10;0.10;;;2.70;99.90;;;;;;5043154;28;20055;-65
2022/03/20 06:58:23;;;;;;;0.10;0.10;;;2.70;99.90;;;;;;5043833;28;20040;-64
2022/03/20 07:00:50;;;;;;;0.00;0.00;;;2.70;99.90;;;;;;5043800;28;20128;-65
2022/03/20 07:03:16;;;;;;;0.10;0.10;;;2.80;99.90;;;;;;5053684;28;20064;-64
2022/03/20 07:05:42;;;;;;;1.10;0.45;;;2.80;99.90;;;;;;5042126;28;20053;-64
2022/03/20 07:08:08;;;;;;;0.30;0.30;;;2.90;99.90;;;;;;5043754;28;20375;-65
2022/03/20 07:10:35;;;;;;;0.88;0.85;;;2.90;99.90;;;;;;5043570;28;20041;-64
2022/03/20 07:15:47;;;;;;;0.00;0.00;;;3.00;99.90;;;;;;5043538;28;20045;-64
2022/03/20 07:18:16;;;;;;;0.25;0.25;;;3.10;99.90;;;;;;5043311;28;20419;-65
2022/03/20 07:20:44;;;;;;;0.08;0.08;;;3.10;99.90;;;;;;5024228;28;20049;-65
2022/03/20 07:23:10;;;;;;;0.10;0.10;;;3.10;99.90;;;;;;5043034;28;20048;-65
2022/03/20 07:31:06;;;;;;;0.00;0.00;;;3.30;99.90;;;;;;5042270;28;20118;-64
2022/03/20 07:33:33;;;;;;;0.45;0.45;;;3.40;99.90;;;;;;5043327;28;20040;-66
2022/03/20 07:35:59;;;;;;;0.00;0.00;;;3.40;99.90;;;;;;5041965;28;20441;-65
2022/03/20 07:38:26;;;;;;;0.00;0.00;;;3.50;99.90;;;;;;5042401;28;20049;-65
2022/03/20 07:40:51;;;;;;;0.00;0.00;;;3.60;99.90;;;;;;5042015;28;20407;-65
2022/03/20 07:43:17;;;;;;;0.00;0.00;;;3.70;99.90;;;;;;5043083;28;20044;-65
2022/03/20 07:45:43;;;;;;;0.00;0.00;;;3.80;99.90;;;;;;5042120;28;20037;-64
2022/03/20 07:48:08;;;;;;;0.10;0.10;;;3.80;99.90;;;;;;5042682;28;20051;-64
2022/03/20 07:50:35;;;;;;;0.05;0.05;;;3.90;99.90;;;;;;5024319;28;20041;-64
2022/03/20 07:53:00;;;;;;;0.00;0.00;;;4.30;99.90;;;;;;5042760;28;20076;-64
2022/03/20 07:55:28;;;;;;;0.00;0.00;;;4.00;99.90;;;;;;5042912;28;20077;-64
2022/03/20 07:57:55;;;;;;;0.10;0.10;;;4.00;99.90;;;;;;5041880;28;20239;-65
2022/03/20 08:00:21;;;;;;;0.00;0.00;;;4.00;99.90;;;;;;5042503;28;20479;-64
2022/03/20 08:02:51;;;;;;;0.05;0.05;;;4.10;99.90;;;;;;5052970;28;20127;-65
2022/03/20 08:05:18;;;;;;;0.00;0.00;;;4.10;99.90;;;;;;5042052;28;20088;-64
2022/03/20 08:07:43;;;;;;;0.00;0.00;;;4.10;99.90;;;;;;5041585;28;20107;-64
2022/03/20 08:10:11;;;;;;;0.20;0.20;;;4.20;99.90;;;;;;5042117;28;20041;-63
2022/03/20 08:12:37;;;;;;;0.05;0.05;;;4.10;99.90;;;;;;5041250;28;20047;-63
2022/03/20 08:15:04;;;;;;;0.65;0.20;;;5.60;99.90;;;;;;5024099;28;20080;-63
2022/03/20 08:17:30;;;;;;;0.00;0.00;;;4.30;99.90;;;;;;5042468;28;20045;-66
2022/03/20 08:19:57;;;;;;;0.00;0.00;;;4.40;99.90;;;;;;5041678;28;20107;-66
2022/03/20 08:22:22;;;;;;;0.00;0.00;;;4.50;99.90;;;;;;5040681;28;20083;-66
2022/03/20 08:24:48;;;;;;;0.20;0.20;;;4.70;99.90;;;;;;5023844;28;20081;-64
2022/03/20 08:27:14;;;;;;;0.00;0.00;;;4.70;99.90;;;;;;5024370;28;20135;-66
2022/03/20 08:29:40;;;;;;;0.00;0.00;;;4.80;99.90;;;;;;5041955;28;20446;-66
2022/03/20 08:32:07;;;;;;;0.00;0.00;;;4.90;99.90;;;;;;5041320;28;20048;-65
2022/03/20 08:34:33;;;;;;;0.20;0.20;;;5.00;99.90;;;;;;5024182;28;20171;-67
2022/03/20 08:36:59;;;;;;;0.00;0.00;;;5.10;99.90;;;;;;5040853;28;20049;-66
2022/03/20 08:39:24;;;;;;;0.35;0.35;;;5.20;99.90;;;;;;5041646;28;20101;-63
2022/03/20 08:41:50;;;;;;;0.00;0.00;;;5.30;99.90;;;;;;5039869;28;20098;-66
2022/03/20 08:44:16;;;;;;;0.20;0.20;;;5.50;99.90;;;;;;5041659;28;20087;-64
2022/03/20 08:46:41;;;;;;;0.10;0.10;;;5.50;99.90;;;;;;5041052;28;20052;-63
2022/03/20 08:49:07;;;;;;;0.00;0.00;;;5.60;99.90;;;;;;5040888;28;20443;-63
2022/03/20 08:51:35;;;;;;;0.00;0.00;;;5.70;99.90;;;;;;5041266;28;20056;-64
2022/03/20 08:54:01;;;;;;;0.00;0.00;;;5.70;99.90;;;;;;5041564;28;20101;-64
2022/03/20 08:56:28;;;;;;;0.00;0.00;;;5.90;99.90;;;;;;5040291;28;20049;-64
2022/03/20 08:58:55;;;;;;;0.15;0.15;;;6.00;99.90;;;;;;5040851;28;20102;-63
2022/03/20 09:01:21;;;;;;;0.00;0.00;;;6.00;99.90;;;;;;5043956;28;20524;-65
2022/03/20 09:03:50;;;;;;;3.00;0.68;;;6.00;99.90;;;;;;5049711;28;20052;-65
2022/03/20 09:06:22;;;;;;;0.15;0.15;;;6.70;99.90;;;;;;5039297;28;20049;-65
2022/03/20 09:08:49;;;;;;;0.00;0.00;;;6.20;99.90;;;;;;5041270;28;20063;-63
2022/03/20 09:11:18;;;;;;;0.00;0.00;;;6.50;99.90;;;;;;5041342;28;20102;-65
2022/03/20 09:13:44;;;;;;;0.00;0.00;;;6.50;99.90;;;;;;5040421;28;20044;-64
2022/03/20 09:19:03;;;;;;;0.22;0.22;;;7.50;99.90;;;;;;5040792;28;20182;-66
2022/03/20 09:21:32;;;;;;;0.10;0.10;;;7.70;99.90;;;;;;5040313;28;20079;-64
2022/03/20 09:23:58;;;;;;;0.00;0.00;;;8.10;99.90;;;;;;5040844;28;20052;-64
2022/03/20 09:26:24;;;;;;;1.08;0.20;;;8.30;99.90;;;;;;5041285;28;20045;-67
2022/03/20 09:28:50;;;;;;;0.43;0.43;;;8.40;99.90;;;;;;5040746;28;20041;-64
2022/03/20 09:31:16;;;;;;;0.55;0.35;;;9.10;99.90;;;;;;5041098;28;20044;-65
2022/03/20 09:33:42;;;;;;;0.10;0.10;;;9.90;99.90;;;;;;5022892;28;20510;-64
2022/03/20 09:36:08;;;;;;;0.00;0.00;;;8.90;99.90;;;;;;5040356;28;20059;-64
2022/03/20 09:38:35;;;;;;;0.10;0.10;;;9.10;99.90;;;;;;5041439;28;20403;-64
2022/03/20 09:41:09;;;;;;;0.05;0.05;;;9.20;99.90;;;;;;5041212;28;20048;-64
2022/03/20 09:43:39;;;;;;;0.00;0.00;;;9.10;99.90;;;;;;5040743;28;20049;-64
2022/03/20 09:46:06;;;;;;;0.03;0.03;;;9.40;99.90;;;;;;5041054;28;20052;-64
2022/03/20 09:48:32;;;;;;;0.13;0.13;;;9.10;99.90;;;;;;5041767;28;20045;-64
2022/03/20 09:50:59;;;;;;;0.08;0.08;;;9.10;99.90;;;;;;5039604;28;20041;-63
2022/03/20 09:53:26;;;;;;;0.28;0.20;;;9.10;99.90;;;;;;5041178;28;20049;-64
2022/03/20 09:55:55;;;;;;;0.20;0.20;;;10.40;99.90;;;;;;5040581;28;20087;-65
2022/03/20 09:58:28;;;;;;;0.95;0.85;;;9.20;99.90;;;;;;5041093;28;20118;-64
2022/03/20 10:00:55;;;;;;;0.43;0.30;;;9.50;99.90;;;;;;5043674;28;20136;-63
2022/03/20 10:03:25;;;;;;;0.65;0.65;;;9.90;99.90;;;;;;5036136;28;20049;-64
2022/03/20 10:06:16;;;;;;;0.00;0.00;;;10.20;99.90;;;;;;5043298;28;20049;-63
2022/03/20 10:08:58;;;;;;;5.72;0.68;;;10.30;99.90;;;;;;5044189;28;20047;-64
2022/03/20 10:11:25;;;;;;;2.83;0.30;;;10.10;99.90;;;;;;5044066;28;21022;-64
2022/03/20 10:14:09;;;;;;;1.65;0.40;;;10.60;99.90;;;;;;5043864;28;20136;-64
2022/03/20 10:16:43;;;;;;;0.70;0.70;;;9.90;99.90;;;;;;5042773;28;20040;-63
2022/03/20 10:19:24;;;;;;;0.65;0.40;;;10.40;99.90;;;;;;5057050;28;20044;-63
2022/03/20 10:21:56;;;;;;;0.13;0.13;;;10.80;99.90;;;;;;5042759;28;20147;-64
2022/03/20 10:24:24;;;;;;;0.25;0.20;;;10.30;99.90;;;;;;5056371;28;20125;-63
2022/03/20 10:27:13;;;;;;;0.45;0.40;;;10.60;99.90;;;;;;5063346;28;20084;-64
2022/03/20 10:29:57;;;;;;;0.22;0.20;;;10.30;99.90;;;;;;5062525;28;20084;-62
2022/03/20 10:32:24;;;;;;;0.10;0.10;;;10.20;99.90;;;;;;5063804;28;20600;-63
2022/03/20 10:34:56;;;;;;;0.55;0.32;;;10.50;99.90;;;;;;5062795;28;20039;-63
2022/03/20 10:37:49;;;;;;;1.45;0.28;;;10.10;99.90;;;;;;5043104;28;20044;-64
2022/03/20 10:40:17;;;;;;;0.10;0.10;;;10.40;99.90;;;;;;5043416;28;20049;-63
2022/03/20 10:43:10;;;;;;;0.20;0.20;;;10.50;99.90;;;;;;5025577;28;20144;-63
2022/03/20 10:45:52;;;;;;;0.28;0.20;;;10.50;99.90;;;;;;5032691;28;20112;-63
2022/03/20 10:48:29;;;;;;;1.50;1.40;;;10.30;99.90;;;;;;5043490;28;20045;-63
2022/03/20 10:50:55;;;;;;;0.20;0.20;;;10.40;99.90;;;;;;5041692;28;20326;-63
2022/03/20 10:53:20;;;;;;;12.90;1.38;;;10.90;99.90;;;;;;5043273;28;20041;-63
2022/03/20 10:55:46;;;;;;;1.00;0.63;;;11.00;99.90;;;;;;5042747;28;20067;-62
2022/03/20 10:58:26;;;;;;;2.70;2.47;;;11.10;99.90;;;;;;5043199;28;20037;-62
2022/03/20 11:00:52;;;;;;;0.52;0.47;;;11.10;99.90;;;;;;5043556;28;20068;-62
2022/03/20 11:03:22;;;;;;;0.10;0.10;;;10.90;99.90;;;;;;5052839;28;20110;-62
2022/03/20 11:05:49;;;;;;;0.20;0.20;;;11.10;99.90;;;;;;5041940;28;20507;-64
2022/03/20 11:08:14;;;;;;;5.85;0.73;;;11.20;99.50;;;;;;5042884;28;20037;-63
2022/03/20 11:10:44;;;;;;;0.20;0.20;;;11.50;99.90;;;;;;5042730;28;20059;-62
2022/03/20 11:13:13;;;;;;;1.13;0.75;;;11.70;99.90;;;;;;5044215;28;20039;-63
2022/03/20 11:15:41;;;;;;;0.60;0.30;;;11.50;98.70;;;;;;5062237;28;20127;-62
2022/03/20 11:18:07;;;;;;;0.60;0.40;;;11.70;99.20;;;;;;5060648;28;20455;-64
2022/03/20 11:20:33;;;;;;;0.30;0.30;;;11.70;99.90;;;;;;5045012;28;20072;-63
2022/03/20 11:23:04;;;;;;;0.55;0.55;;;11.90;98.90;;;;;;5062122;28;20040;-62
2022/03/20 11:25:32;;;;;;;2.10;0.75;;;11.70;98.70;;;;;;5063347;28;20051;-62
2022/03/20 11:28:01;;;;;;;0.73;0.73;;;11.80;98.70;;;;;;5062462;28;20441;-62
2022/03/20 11:30:33;;;;;;;0.85;0.85;;;11.90;97.50;;;;;;5062659;28;20120;-63
2022/03/20 11:33:01;;;;;;;0.35;0.35;;;12.00;97.40;;;;;;5062096;28;20052;-63
2022/03/20 11:35:30;;;;;;;0.57;0.32;;;12.00;97.60;;;;;;5043739;28;20045;-62
2022/03/20 11:37:59;;;;;;;0.20;0.15;;;11.90;97.30;;;;;;5062170;28;20056;-63
2022/03/20 11:40:26;;;;;;;0.10;0.10;;;11.80;97.60;;;;;;5062285;28;20044;-64
2022/03/20 11:43:13;;;;;;;1.00;0.95;;;12.00;98.60;;;;;;5061842;28;20051;-64
2022/03/20 11:45:38;;;;;;;0.10;0.10;;;12.30;97.80;;;;;;5047888;28;20051;-62
2022/03/20 11:48:15;;;;;;;0.25;0.20;;;12.50;97.20;;;;;;5062787;28;20647;-63
2022/03/20 11:50:47;;;;;;;0.52;0.52;;;12.40;97.20;;;;;;5061426;28;20526;-62
2022/03/20 11:53:25;;;;;;;0.70;0.65;;;12.20;97.30;;;;;;5062127;28;20041;-63
2022/03/20 11:55:51;;;;;;;0.15;0.15;;;12.30;96.40;;;;;;5061833;28;20736;-62
2022/03/20 11:58:16;;;;;;;1.02;0.35;;;12.10;95.20;;;;;;5062100;28;20055;-62
2022/03/20 12:00:44;;;;;;;0.25;0.22;;;11.90;96.00;;;;;;5060368;28;20696;-64
2022/03/20 12:03:13;;;;;;;1.50;1.05;;;11.80;95.70;;;;;;5052344;28;20057;-63
2022/03/20 12:05:41;;;;;;;0.40;0.20;;;11.80;95.60;;;;;;5041152;28;20049;-62
2022/03/20 12:08:39;;;;;;;0.38;0.38;;;11.80;96.50;;;;;;5041468;28;20045;-63
2022/03/20 12:11:16;;;;;;;0.73;0.43;;;12.00;96.20;;;;;;5041971;28;20416;-62
2022/03/20 12:14:03;;;;;;;2.80;1.77;;;12.10;96.10;;;;;;5060613;28;20403;-64
2022/03/20 12:16:43;;;;;;;0.85;0.73;;;12.20;96.40;;;;;;5061629;28;20048;-63
2022/03/20 12:19:11;;;;;;;0.40;0.40;;;12.10;95.20;;;;;;5061849;28;20036;-63
2022/03/20 12:21:53;;;;;;;1.23;0.57;;;12.30;95.90;;;;;;5060587;28;20044;-63
2022/03/20 12:24:55;;;;;;;0.10;0.10;;;12.70;95.20;;;;;;5061358;28;20076;-63
2022/03/20 12:27:24;;;;;;;1.48;0.77;;;12.30;94.90;;;;;;5060997;28;20123;-63
2022/03/20 12:29:53;;;;;;;1.80;1.42;;;12.30;94.70;;;;;;5061292;28;20052;-63
2022/03/20 12:32:21;;;;;;;0.45;0.45;;;12.20;94.10;;;;;;5061436;28;20431;-62
2022/03/20 12:35:04;;;;;;;0.82;0.65;;;12.10;94.50;;;;;;5059881;28;20082;-66
2022/03/20 12:37:30;;;;;;;0.95;0.90;;;12.50;95.20;;;;;;5061917;28;20055;-65
2022/03/20 12:40:02;;;;;;;0.80;0.80;;;12.40;94.70;;;;;;5060773;28;20056;-66
2022/03/20 12:42:29;;;;;;;0.68;0.68;;;12.40;94.30;;;;;;5061168;28;20044;-66
2022/03/20 12:44:54;;;;;;;0.30;0.30;;;12.50;94.70;;;;;;5061380;28;20052;-66
2022/03/20 12:47:23;;;;;;;2.05;1.85;;;12.30;94.50;;;;;;5061592;28;20526;-63
2022/03/20 12:50:09;;;;;;;3.85;0.88;;;12.20;94.60;;;;;;5041715;28;20127;-65
2022/03/20 12:52:36;;;;;;;0.45;0.25;;;12.50;94.60;;;;;;5043249;28;20041;-63
2022/03/20 12:55:08;;;;;;;1.10;0.32;;;12.80;94.20;;;;;;5061461;28;20442;-63
2022/03/20 12:57:44;;;;;;;0.63;0.63;;;12.50;93.90;;;;;;5027416;28;20060;-63
2022/03/20 13:00:15;;;;;;;1.40;0.95;;;12.30;93.60;;;;;;5061649;28;20048;-66
2022/03/20 13:03:10;;;;;;;0.93;0.93;;;12.10;94.70;;;;;;5053565;28;20048;-63
2022/03/20 13:05:45;;;;;;;0.47;0.40;;;12.20;94.90;;;;;;5040305;28;20056;-63
2022/03/20 13:08:21;;;;;;;1.25;0.98;;;12.50;95.30;;;;;;5040984;28;20492;-61
2022/03/20 13:10:48;;;;;;;5.00;0.73;;;12.50;95.40;;;;;;5040447;28;20041;-61
2022/03/20 13:13:16;;;;;;;1.48;0.30;;;12.50;94.20;;;;;;5056481;28;20418;-61
2022/03/20 13:15:42;;;;;;;0.40;0.40;;;12.70;94.30;;;;;;5060976;28;20127;-61
2022/03/20 13:18:10;;;;;;;0.68;0.35;;;13.00;95.40;;;;;;5043369;28;20120;-61
2022/03/20 13:20:38;;;;;;;0.35;0.35;;;12.90;94.00;;;;;;5045926;28;20037;-61
2022/03/20 13:23:09;;;;;;;1.23;1.10;;;13.00;94.40;;;;;;5040818;28;20048;-62
2022/03/20 13:25:41;;;;;;;0.50;0.50;;;13.20;94.50;;;;;;5056714;28;20093;-62
2022/03/20 13:28:07;;;;;;;0.13;0.08;;;13.00;92.60;;;;;;5060629;28;20056;-62
2022/03/20 13:30:38;;;;;;;2.78;1.45;;;13.10;93.30;;;;;;5059637;28;20048;-63
2022/03/20 13:33:05;;;;;;;3.92;0.75;;;12.50;92.80;;;;;;5054344;28;20048;-61
2022/03/20 13:35:31;;;;;;;3.45;1.50;;;12.70;93.60;;;;;;5075907;28;20115;-60
2022/03/20 13:38:00;;;;;;;0.95;0.60;;;12.50;93.00;;;;;;5045519;28;20045;-65